Time;durP1;ratioP1;P1;durP2;ratioP2;P2;SDS_P1;SDS_P2;PMS_P1;PMS_P2;Temp;Humidity;BMP_temperature;BMP_pressure;BME280_temperature;BME280_humidity;BME280_pressure;Samples;Min_cycle;Max_cycle;Signal;HPM_P1;HPM_P2
2022/07/31 00:01:53;;;;;;;;;;;;;;;21.32;66.23;101365.66;4937357;28;120537;-81
2022/07/31 00:04:20;;;;;;;;;;;;;;;21.30;66.29;101359.84;4933673;28;121144;-81
2022/07/31 00:06:45;;;;;;;;;;;;;;;21.28;66.04;101362.34;4940791;28;120591;-82
2022/07/31 00:09:11;;;;;;;;;;;;;;;21.27;65.76;101362.88;4939876;28;121198;-81
2022/07/31 00:11:36;;;;;;;;;;;;;;;21.26;65.86;101369.72;4923571;28;122642;-81
2022/07/31 00:14:04;;;;;;;;;;;;;;;21.24;65.86;101359.06;4936231;28;120379;-81
2022/07/31 00:16:30;;;;;;;;;;;;;;;21.21;65.91;101351.69;4920751;28;122364;-81
2022/07/31 00:18:55;;;;;;;;;;;;;;;21.19;66.11;101354.22;4936899;28;122355;-82
2022/07/31 00:21:21;;;;;;;;;;;;;;;21.17;66.18;101345.59;4938256;28;120390;-81
2022/07/31 00:23:52;;;;;;;;;;;;;;;21.14;66.07;101352.22;4938773;28;120067;-81
2022/07/31 00:26:17;;;;;;;;;;;;;;;21.10;65.81;101348.91;4923457;28;120866;-82
2022/07/31 00:28:43;;;;;;;;;;;;;;;21.05;66.20;101344.06;4945649;28;120585;-82
2022/07/31 00:31:09;;;;;;;;;;;;;;;21.02;66.20;101342.31;4921296;28;120319;-82
2022/07/31 00:33:34;;;;;;;;;;;;;;;21.00;66.50;101347.63;4938804;28;120444;-81
2022/07/31 00:36:00;;;;;;;;;;;;;;;20.99;66.51;101348.91;4936664;28;120892;-82
2022/07/31 00:38:34;;;;;;;;;;;;;;;20.97;66.49;101349.41;4938283;28;121553;-81
2022/07/31 00:41:01;;;;;;;;;;;;;;;20.96;66.55;101347.13;4935982;28;120431;-82
2022/07/31 00:43:27;;;;;;;;;;;;;;;20.93;66.66;101343.34;4940456;28;121751;-82
2022/07/31 00:45:52;;;;;;;;;;;;;;;20.93;66.59;101348.16;4946721;28;122923;-81
2022/07/31 00:48:18;;;;;;;;;;;;;;;20.94;66.86;101349.66;4939696;28;120460;-81
2022/07/31 00:50:44;;;;;;;;;;;;;;;20.94;66.90;101347.66;4936316;28;120027;-82
2022/07/31 00:53:09;;;;;;;;;;;;;;;20.94;67.18;101346.88;4935003;28;120813;-81
2022/07/31 00:55:38;;;;;;;;;;;;;;;20.94;66.88;101338.50;4940302;28;120559;-81
2022/07/31 00:58:03;;;;;;;;;;;;;;;20.94;66.83;101335.72;4944910;28;121618;-82
2022/07/31 01:00:29;;;;;;;;;;;;;;;20.93;67.13;101329.38;4926708;28;123115;-82
2022/07/31 01:02:55;;;;;;;;;;;;;;;20.93;67.10;101325.84;4941792;28;121862;-81
2022/07/31 01:05:20;;;;;;;;;;;;;;;20.94;67.05;101330.16;4939509;28;120204;-80
2022/07/31 01:07:47;;;;;;;;;;;;;;;20.93;66.92;101332.19;4944708;28;121465;-81
2022/07/31 01:10:16;;;;;;;;;;;;;;;20.93;67.02;101337.75;4939558;28;120779;-81
2022/07/31 01:12:46;;;;;;;;;;;;;;;20.92;66.98;101344.59;4924925;28;123198;-81
2022/07/31 01:15:12;;;;;;;;;;;;;;;20.92;67.13;101329.91;4969299;28;120251;-81
2022/07/31 01:17:38;;;;;;;;;;;;;;;20.91;66.88;101329.13;4922962;28;121789;-81
2022/07/31 01:20:05;;;;;;;;;;;;;;;20.90;66.99;101321.28;4940331;28;120159;-81
2022/07/31 01:22:33;;;;;;;;;;;;;;;20.91;67.15;101322.81;4937091;28;120533;-81
2022/07/31 01:25:08;;;;;;;;;;;;;;;20.89;66.79;101323.31;4924282;28;120750;-82
2022/07/31 01:27:42;;;;;;;;;;;;;;;20.84;66.78;101324.84;4952231;28;120815;-81
2022/07/31 01:30:09;;;;;;;;;;;;;;;20.82;66.82;101321.78;4939093;28;119993;-82
2022/07/31 01:32:37;;;;;;;;;;;;;;;20.81;66.78;101325.81;4936297;28;123093;-81
2022/07/31 01:35:10;;;;;;;;;;;;;;;20.79;66.70;101322.03;4940748;28;121241;-81
2022/07/31 01:37:39;;;;;;;;;;;;;;;20.77;66.84;101325.31;4937506;28;119840;-81
2022/07/31 01:40:10;;;;;;;;;;;;;;;20.75;66.57;101315.94;4938250;28;120478;-80
2022/07/31 01:42:41;;;;;;;;;;;;;;;20.69;66.54;101313.16;4936030;28;120485;-81
2022/07/31 01:45:13;;;;;;;;;;;;;;;20.63;66.65;101323.56;4924371;28;121246;-81
2022/07/31 01:47:40;;;;;;;;;;;;;;;20.59;66.66;101320.25;4938354;28;120249;-80
2022/07/31 01:50:07;;;;;;;;;;;;;;;20.55;66.85;101319.72;4938319;28;119934;-81
2022/07/31 01:52:34;;;;;;;;;;;;;;;20.51;67.24;101314.41;4923702;28;122834;-81
2022/07/31 01:55:01;;;;;;;;;;;;;;;20.50;67.20;101324.03;4939598;28;120612;-81
2022/07/31 01:57:28;;;;;;;;;;;;;;;20.51;67.38;101331.13;4937848;28;120053;-80
2022/07/31 01:59:58;;;;;;;;;;;;;;;20.53;67.43;101328.59;4925383;28;123185;-81
2022/07/31 02:02:41;;;;;;;;;;;;;;;20.54;67.57;101329.34;4933755;28;120945;-81
2022/07/31 02:05:09;;;;;;;;;;;;;;;20.55;67.37;101314.16;4920127;28;121990;-81
2022/07/31 02:07:44;;;;;;;;;;;;;;;20.58;67.52;101313.13;4940564;28;120407;-81
2022/07/31 02:10:13;;;;;;;;;;;;;;;20.60;67.37;101312.66;4936568;28;120450;-82
2022/07/31 02:12:39;;;;;;;;;;;;;;;20.62;67.79;101312.91;4943203;28;119848;-81
2022/07/31 02:15:10;;;;;;;;;;;;;;;20.64;67.70;101313.91;4931985;28;120315;-81
2022/07/31 02:17:40;;;;;;;;;;;;;;;20.66;67.84;101311.38;4945950;28;120295;-81
2022/07/31 02:20:37;;;;;;;;;;;;;;;20.69;67.83;101317.97;4902217;28;120485;-81
2022/07/31 02:23:02;;;;;;;;;;;;;;;20.72;67.94;101312.16;4941117;28;120428;-81
2022/07/31 02:25:29;;;;;;;;;;;;;;;20.77;67.96;101314.16;4930964;28;120246;-81
2022/07/31 02:27:56;;;;;;;;;;;;;;;20.80;67.86;101307.56;4969478;28;120346;-81
2022/07/31 02:30:23;;;;;;;;;;;;;;;20.85;67.74;101308.88;4937265;28;120336;-81
2022/07/31 02:32:49;;;;;;;;;;;;;;;20.87;68.09;101311.91;4929390;28;120419;-81
2022/07/31 02:35:16;;;;;;;;;;;;;;;20.89;68.04;101309.38;4938416;28;120590;-81
2022/07/31 02:37:43;;;;;;;;;;;;;;;20.91;67.72;101309.63;4932774;28;120556;-80
2022/07/31 02:40:10;;;;;;;;;;;;;;;20.94;67.83;101307.84;4961928;28;122421;-80
2022/07/31 02:42:36;;;;;;;;;;;;;;;20.95;67.94;101306.56;4952465;28;120673;-81
2022/07/31 02:45:02;;;;;;;;;;;;;;;20.95;67.90;101301.00;4947984;28;122360;-81
2022/07/31 02:47:28;;;;;;;;;;;;;;;20.97;67.67;101302.00;4935856;28;121507;-81
2022/07/31 02:49:57;;;;;;;;;;;;;;;20.99;67.76;101295.91;4952949;28;120075;-80
2022/07/31 02:52:23;;;;;;;;;;;;;;;21.00;67.63;101295.41;4951138;28;120214;-80
2022/07/31 02:54:49;;;;;;;;;;;;;;;20.99;67.69;101291.09;4926696;28;120692;-81
2022/07/31 02:57:16;;;;;;;;;;;;;;;20.99;67.46;101293.13;4924091;28;120380;-81
2022/07/31 02:59:42;;;;;;;;;;;;;;;20.97;67.51;101295.66;4952201;28;120301;-80
2022/07/31 03:02:08;;;;;;;;;;;;;;;20.94;67.33;101288.31;4951929;28;120109;-81
2022/07/31 03:04:39;;;;;;;;;;;;;;;20.94;67.79;101291.09;4951455;28;120300;-81
2022/07/31 03:07:05;;;;;;;;;;;;;;;20.93;67.57;101292.38;4929368;28;120250;-80
2022/07/31 03:09:31;;;;;;;;;;;;;;;20.91;67.40;101290.09;4931188;28;120599;-81
2022/07/31 03:12:25;;;;;;;;;;;;;;;20.91;67.41;101283.75;4952618;28;120158;-81
2022/07/31 03:14:52;;;;;;;;;;;;;;;20.90;67.50;101285.03;4918701;28;123020;-80
2022/07/31 03:17:18;;;;;;;;;;;;;;;20.91;67.56;101278.19;4943631;28;120053;-80
2022/07/31 03:19:45;;;;;;;;;;;;;;;20.90;67.40;101283.00;4919951;28;121617;-80
2022/07/31 03:22:10;;;;;;;;;;;;;;;20.87;67.35;101272.09;4948640;28;119985;-80
2022/07/31 03:24:36;;;;;;;;;;;;;;;20.86;67.33;101281.75;4951241;28;120279;-81
2022/07/31 03:27:02;;;;;;;;;;;;;;;20.84;67.30;101280.22;4915154;28;122760;-80
2022/07/31 03:29:36;;;;;;;;;;;;;;;20.83;67.33;101284.28;4914595;28;120020;-81
2022/07/31 03:32:01;;;;;;;;;;;;;;;20.84;67.50;101282.25;4927751;28;121904;-80
2022/07/31 03:34:27;;;;;;;;;;;;;;;20.85;67.63;101278.19;4926713;28;120226;-80
2022/07/31 03:36:52;;;;;;;;;;;;;;;20.86;67.52;101281.75;4932456;28;120323;-80
2022/07/31 03:39:18;;;;;;;;;;;;;;;20.88;67.67;101285.53;4932885;28;122016;-80
2022/07/31 03:41:45;;;;;;;;;;;;;;;20.89;67.16;101275.16;4955719;28;120563;-80
2022/07/31 03:44:11;;;;;;;;;;;;;;;20.87;66.79;101284.03;4918743;28;121890;-80
2022/07/31 03:46:37;;;;;;;;;;;;;;;20.87;67.31;101277.69;4945521;28;121213;-80
2022/07/31 03:49:03;;;;;;;;;;;;;;;20.84;67.47;101280.22;4932005;28;121462;-80
2022/07/31 03:51:29;;;;;;;;;;;;;;;20.84;67.08;101282.25;4916105;28;119909;-81
2022/07/31 03:53:55;;;;;;;;;;;;;;;20.83;66.90;101281.50;4950655;28;120855;-80
2022/07/31 03:56:40;;;;;;;;;;;;;;;20.82;67.05;101282.75;4938793;28;120207;-80
2022/07/31 03:59:05;;;;;;;;;;;;;;;20.82;67.00;101285.56;4932254;28;120130;-80
2022/07/31 04:01:33;;;;;;;;;;;;;;;20.82;67.03;101287.56;4902530;28;122991;-80
2022/07/31 04:04:00;;;;;;;;;;;;;;;20.83;67.06;101287.06;4928708;28;120269;-80
2022/07/31 04:06:32;;;;;;;;;;;;;;;20.86;67.04;101285.28;4932068;28;123119;-80
2022/07/31 04:09:00;;;;;;;;;;;;;;;20.89;67.15;101291.88;4947778;28;120368;-80
2022/07/31 04:11:26;;;;;;;;;;;;;;;20.90;66.75;101293.41;4937701;28;120231;-81
2022/07/31 04:13:52;;;;;;;;;;;;;;;20.92;66.70;101291.63;4919459;28;123345;-80
2022/07/31 04:16:18;;;;;;;;;;;;;;;20.95;67.05;101287.81;4948997;28;120695;-80
2022/07/31 04:18:43;;;;;;;;;;;;;;;20.99;66.81;101281.97;4935403;28;120066;-81
2022/07/31 04:21:09;;;;;;;;;;;;;;;21.02;66.68;101276.13;4925621;28;123781;-80
2022/07/31 04:23:34;;;;;;;;;;;;;;;21.06;66.56;101265.50;4927521;28;120332;-81
2022/07/31 04:26:27;;;;;;;;;;;;;;;21.09;66.28;101277.66;4922064;28;123145;-80
2022/07/31 04:28:58;;;;;;;;;;;;;;;21.12;66.58;101276.63;4915151;28;120170;-81
2022/07/31 04:31:24;;;;;;;;;;;;;;;21.13;66.42;101270.56;4940330;28;120665;-81
2022/07/31 04:33:50;;;;;;;;;;;;;;;21.16;66.29;101277.13;4928954;28;123873;-80
2022/07/31 04:36:17;;;;;;;;;;;;;;;21.18;66.11;101279.41;4913939;28;120022;-81
2022/07/31 04:38:42;;;;;;;;;;;;;;;21.19;65.73;101273.31;4914606;28;122966;-80
2022/07/31 04:41:08;;;;;;;;;;;;;;;21.20;66.05;101277.63;4934388;28;120298;-81
2022/07/31 04:43:33;;;;;;;;;;;;;;;21.22;66.03;101269.50;4948048;28;120430;-81
2022/07/31 04:45:59;;;;;;;;;;;;;;;21.28;65.96;101275.09;4951493;28;120073;-81
2022/07/31 04:48:24;;;;;;;;;;;;;;;21.32;66.15;101273.59;4933099;28;120556;-81
2022/07/31 04:50:50;;;;;;;;;;;;;;;21.39;66.11;101278.63;4949675;28;120261;-80
2022/07/31 04:53:16;;;;;;;;;;;;;;;21.45;65.82;101276.59;4941550;28;121323;-81
2022/07/31 04:55:41;;;;;;;;;;;;;;;21.51;65.53;101284.94;4938359;28;120402;-80
2022/07/31 04:58:07;;;;;;;;;;;;;;;21.57;65.56;101284.94;4950145;28;120570;-80
2022/07/31 05:00:33;;;;;;;;;;;;;;;21.62;65.81;101284.16;4930852;28;121079;-80
2022/07/31 05:02:58;;;;;;;;;;;;;;;21.65;65.20;101283.88;4933529;28;120954;-81
2022/07/31 05:05:24;;;;;;;;;;;;;;;21.70;65.47;101285.13;4933583;28;120287;-80
2022/07/31 05:07:49;;;;;;;;;;;;;;;21.76;65.35;101277.47;4952197;28;120682;-81
2022/07/31 05:13:30;;;;;;;;;;;;;;;21.86;65.07;101278.72;4925525;28;120878;-81
2022/07/31 05:15:56;;;;;;;;;;;;;;;21.93;65.34;101283.00;4943988;28;120739;-80
2022/07/31 05:18:21;;;;;;;;;;;;;;;22.02;65.37;101277.88;4928520;28;123172;-81
2022/07/31 05:20:53;;;;;;;;;;;;;;;22.14;65.31;101280.63;4935017;28;121444;-81
2022/07/31 05:23:48;;;;;;;;;;;;;;;22.25;65.38;101283.38;4953189;28;120980;-81
2022/07/31 05:26:19;;;;;;;;;;;;;;;22.32;64.70;101277.22;4931878;28;120975;-81
2022/07/31 05:28:44;;;;;;;;;;;;;;;22.37;64.19;101279.22;4948217;28;124486;-81
2022/07/31 05:31:10;;;;;;;;;;;;;;;22.42;64.33;101274.84;4917241;28;122934;-81
2022/07/31 05:33:36;;;;;;;;;;;;;;;22.46;64.27;101270.50;4928077;28;121533;-81
2022/07/31 05:36:02;;;;;;;;;;;;;;;22.52;63.58;101273.28;4912074;28;121398;-81
2022/07/31 05:38:28;;;;;;;;;;;;;;;22.54;64.01;101265.13;4929395;28;121252;-80
2022/07/31 05:41:13;;;;;;;;;;;;;;;22.53;63.73;101264.38;4939190;28;124888;-81
2022/07/31 05:43:59;;;;;;;;;;;;;;;22.53;63.88;101263.59;4918890;28;121340;-81
2022/07/31 05:46:44;;;;;;;;;;;;;;;22.50;63.99;101257.03;4950531;28;120864;-80
2022/07/31 05:49:09;;;;;;;;;;;;;;;22.49;64.00;101263.13;4939317;28;121780;-81
2022/07/31 05:51:35;;;;;;;;;;;;;;;22.46;63.79;101255.75;4962557;28;121024;-81
2022/07/31 05:54:01;;;;;;;;;;;;;;;22.44;63.26;101253.50;4936664;28;123547;-81
2022/07/31 05:57:05;;;;;;;;;;;;;;;22.46;62.93;101248.13;4936752;28;121253;-80
2022/07/31 06:00:09;;;;;;;;;;;;;;;22.54;63.36;101249.09;4857918;28;121298;-81
2022/07/31 06:02:38;;;;;;;;;;;;;;;22.66;63.23;101244.16;4852580;28;122470;-82
2022/07/31 06:05:09;;;;;;;;;;;;;;;22.77;62.73;101255.28;4870021;28;121330;-80
2022/07/31 06:07:35;;;;;;;;;;;;;;;22.88;62.23;101255.19;4853416;28;123622;-81
2022/07/31 06:10:01;;;;;;;;;;;;;;;22.99;62.07;101259.94;4851783;28;125533;-80
2022/07/31 06:12:28;;;;;;;;;;;;;;;23.12;62.29;101251.66;4853286;28;121699;-81
2022/07/31 06:14:53;;;;;;;;;;;;;;;23.20;61.20;101252.59;4867217;28;122261;-81
2022/07/31 06:17:39;;;;;;;;;;;;;;;23.26;60.78;101244.88;4866885;28;122228;-81
2022/07/31 06:20:09;;;;;;;;;;;;;;;23.27;60.21;101248.44;4855159;28;121955;-81
2022/07/31 06:22:35;;;;;;;;;;;;;;;23.28;60.45;101255.56;4864227;28;121995;-81
2022/07/31 06:25:01;;;;;;;;;;;;;;;23.28;60.55;101253.50;4865586;28;122955;-81
2022/07/31 06:27:26;;;;;;;;;;;;;;;23.27;60.39;101252.00;4864427;28;121788;-81
2022/07/31 06:29:52;;;;;;;;;;;;;;;23.23;60.08;101245.94;4851612;28;124529;-81
2022/07/31 06:32:17;;;;;;;;;;;;;;;23.17;60.15;101250.81;4868940;28;122085;-80
2022/07/31 06:34:43;;;;;;;;;;;;;;;23.12;60.41;101248.09;4871974;28;123999;-81
2022/07/31 06:37:09;;;;;;;;;;;;;;;23.08;60.03;101251.19;4934420;28;125751;-81
2022/07/31 06:39:35;;;;;;;;;;;;;;;23.08;60.11;101251.19;4945854;28;121799;-80
2022/07/31 06:42:30;;;;;;;;;;;;;;;23.13;60.54;101241.97;4875191;28;124690;-81
2022/07/31 06:45:04;;;;;;;;;;;;;;;23.21;59.89;101242.91;4929309;28;121742;-80
2022/07/31 06:47:48;;;;;;;;;;;;;;;23.32;59.35;101247.63;4929611;28;121742;-81
2022/07/31 06:50:28;;;;;;;;;;;;;;;23.32;59.93;101238.47;4934659;28;122183;-81
2022/07/31 06:53:10;;;;;;;;;;;;;;;23.27;58.99;101240.81;4946344;28;122129;-81
2022/07/31 06:55:36;;;;;;;;;;;;;;;23.22;59.14;101238.84;4947679;28;121674;-81
2022/07/31 06:58:02;;;;;;;;;;;;;;;23.22;59.61;101240.88;4946332;28;121987;-81
2022/07/31 07:00:28;;;;;;;;;;;;;;;23.22;58.98;101233.22;4950729;28;121725;-81
2022/07/31 07:02:53;;;;;;;;;;;;;;;23.23;59.67;101231.94;4938195;28;121841;-81
2022/07/31 07:05:20;;;;;;;;;;;;;;;23.24;59.46;101235.50;4911838;28;121723;-80
2022/07/31 07:07:49;;;;;;;;;;;;;;;23.27;59.44;101235.22;4928329;28;121629;-80
2022/07/31 07:10:14;;;;;;;;;;;;;;;23.36;59.50;101241.72;4914973;28;121986;-81
2022/07/31 07:13:00;;;;;;;;;;;;;;;23.44;59.00;101234.25;4946273;28;122061;-80
2022/07/31 07:15:29;;;;;;;;;;;;;;;23.54;58.85;101238.97;4946815;28;121796;-80
2022/07/31 07:17:57;;;;;;;;;;;;;;;23.61;58.42;101234.06;4947054;28;125337;-81
2022/07/31 07:20:33;;;;;;;;;;;;;;;23.64;57.72;101228.16;4948251;28;121919;-81
2022/07/31 07:22:58;;;;;;;;;;;;;;;23.67;57.80;101234.78;4954015;28;121518;-81
2022/07/31 07:25:48;;;;;;;;;;;;;;;23.67;58.06;101235.53;4950401;28;121751;-80
2022/07/31 07:28:14;;;;;;;;;;;;;;;23.71;57.30;101227.56;4933372;28;122171;-81
2022/07/31 07:30:40;;;;;;;;;;;;;;;23.79;57.89;101222.13;4946239;28;122400;-81
2022/07/31 07:33:06;;;;;;;;;;;;;;;23.83;57.61;101217.72;4930452;28;122061;-81
2022/07/31 07:35:31;;;;;;;;;;;;;;;23.86;57.97;101219.47;4914227;28;123653;-81
2022/07/31 07:37:57;;;;;;;;;;;;;;;23.86;57.14;101215.91;4930568;28;124882;-81
2022/07/31 07:40:24;;;;;;;;;;;;;;;23.86;57.86;101213.09;4930125;28;121899;-81
2022/07/31 07:42:49;;;;;;;;;;;;;;;23.86;57.74;101216.66;4948854;28;121880;-81
2022/07/31 07:45:15;;;;;;;;;;;;;;;23.88;57.38;101225.28;4953580;28;125064;-81
2022/07/31 07:47:41;;;;;;;;;;;;;;;23.90;57.24;101221.97;4950164;28;122038;-81
2022/07/31 07:50:07;;;;;;;;;;;;;;;23.92;57.11;101224.25;4941878;28;124919;-81
2022/07/31 07:52:52;;;;;;;;;;;;;;;23.96;57.06;101219.84;4948842;28;123056;-82
2022/07/31 07:56:00;;;;;;;;;;;;;;;23.99;56.26;101221.59;4947725;28;122485;-80
2022/07/31 07:58:44;;;;;;;;;;;;;;;24.07;56.32;101219.66;4946678;28;122773;-81
2022/07/31 08:01:33;;;;;;;;;;;;;;;24.24;56.05;101216.63;4914100;28;122114;-81
2022/07/31 08:04:12;;;;;;;;;;;;;;;24.44;56.23;101201.28;4920570;28;124924;-81
2022/07/31 08:06:38;;;;;;;;;;;;;;;24.74;56.75;101209.44;4948971;28;125507;-81
2022/07/31 08:09:03;;;;;;;;;;;;;;;25.00;56.10;101200.31;4952100;28;122090;-81
2022/07/31 08:11:48;;;;;;;;;;;;;;;25.19;55.29;101200.22;4926002;28;125039;-81
2022/07/31 08:14:26;;;;;;;;;;;;;;;25.32;54.58;101200.22;4931127;28;122340;-81
2022/07/31 08:17:20;;;;;;;;;;;;;;;25.43;54.79;101197.16;4915890;28;122260;-81
2022/07/31 08:19:46;;;;;;;;;;;;;;;25.54;53.83;101190.53;4941829;28;122821;-81
2022/07/31 08:22:12;;;;;;;;;;;;;;;25.66;53.87;101191.81;4943091;28;122072;-81
2022/07/31 08:24:37;;;;;;;;;;;;;;;25.83;53.25;101194.28;4940599;28;122398;-81
2022/07/31 08:29:47;;;;;;;;;;;;;;;26.15;52.32;101196.84;4947383;28;122374;-80
2022/07/31 08:32:16;;;;;;;;;;;;;;;26.24;51.64;101188.69;4941539;28;122255;-80
2022/07/31 08:35:01;;;;;;;;;;;;;;;26.30;51.75;101185.75;4931053;28;122842;-80
2022/07/31 08:37:27;;;;;;;;;;;;;;;26.38;51.42;101191.47;4938723;28;122288;-80
2022/07/31 08:39:55;;;;;;;;;;;;;;;26.54;50.97;101193.88;4936562;28;122574;-81
2022/07/31 08:42:21;;;;;;;;;;;;;;;26.74;50.67;101197.97;4920763;28;123459;-81
2022/07/31 08:44:46;;;;;;;;;;;;;;;26.88;50.62;101202.16;4925066;28;124139;-81
2022/07/31 08:47:15;;;;;;;;;;;;;;;26.93;49.74;101194.88;4947997;28;122439;-81
2022/07/31 08:49:45;;;;;;;;;;;;;;;26.88;49.08;101199.34;4927180;28;123482;-81
2022/07/31 08:52:15;;;;;;;;;;;;;;;26.82;48.95;101186.75;4939577;28;123602;-82
2022/07/31 08:55:06;;;;;;;;;;;;;;;26.79;48.58;101191.41;4932894;28;122062;-81
2022/07/31 08:57:32;;;;;;;;;;;;;;;26.79;48.93;101188.59;4941652;28;122936;-81
2022/07/31 08:59:57;;;;;;;;;;;;;;;26.79;48.19;101194.22;4931169;28;123695;-81
2022/07/31 09:02:23;;;;;;;;;;;;;;;26.75;48.44;101188.22;4956415;28;122316;-81
2022/07/31 09:05:15;;;;;;;;;;;;;;;26.77;48.03;101188.41;4941149;28;122092;-81
2022/07/31 09:07:41;;;;;;;;;;;;;;;26.80;47.91;101178.84;4923886;28;122572;-81
2022/07/31 09:10:18;;;;;;;;;;;;;;;26.91;48.38;101184.16;4940108;28;123891;-81
2022/07/31 09:12:43;;;;;;;;;;;;;;;27.04;48.11;101182.59;4928928;28;122899;-81
2022/07/31 09:15:19;;;;;;;;;;;;;;;27.18;48.27;101181.16;4943054;28;123610;-81
2022/07/31 09:18:20;;;;;;;;;;;;;;;27.28;47.36;101189.84;4914448;28;124032;-82
2022/07/31 09:20:55;;;;;;;;;;;;;;;27.38;47.30;101177.50;4941788;28;122783;-81
2022/07/31 09:23:21;;;;;;;;;;;;;;;27.47;46.47;101179.78;4943444;28;122751;-81
2022/07/31 09:25:55;;;;;;;;;;;;;;;27.56;46.86;101170.03;4945036;28;122468;-81
2022/07/31 09:28:29;;;;;;;;;;;;;;;27.67;46.21;101166.16;4944529;28;122851;-80
2022/07/31 09:30:55;;;;;;;;;;;;;;;27.78;46.15;101163.75;4959057;28;122030;-80
2022/07/31 09:33:44;;;;;;;;;;;;;;;27.91;45.71;101164.88;4942595;28;122509;-81
2022/07/31 09:36:31;;;;;;;;;;;;;;;27.81;45.38;101171.09;4945186;28;124010;-81
2022/07/31 09:39:13;;;;;;;;;;;;;;;27.73;45.36;101170.31;4933492;28;122562;-81
2022/07/31 09:42:00;;;;;;;;;;;;;;;27.66;44.39;101161.81;4921874;28;126659;-81
2022/07/31 09:44:49;;;;;;;;;;;;;;;27.57;44.73;101160.28;4939796;28;123654;-81
2022/07/31 09:47:22;;;;;;;;;;;;;;;27.52;44.65;101166.84;4921502;28;122444;-81
2022/07/31 09:49:58;;;;;;;;;;;;;;;27.53;44.59;101159.91;4937376;28;122945;-81
2022/07/31 09:52:28;;;;;;;;;;;;;;;27.56;44.73;101158.03;4923097;28;122697;-81
2022/07/31 09:55:03;;;;;;;;;;;;;;;27.59;44.58;101165.34;4934607;28;124306;-81
2022/07/31 09:57:29;;;;;;;;;;;;;;;27.52;44.24;101164.78;4924757;28;125549;-81
2022/07/31 09:59:57;;;;;;;;;;;;;;;27.50;44.83;101167.41;4915526;28;122280;-82
2022/07/31 10:02:24;;;;;;;;;;;;;;;27.56;44.72;101163.66;4947491;28;123205;-81
2022/07/31 10:04:54;;;;;;;;;;;;;;;27.65;44.36;101165.97;4938074;28;123279;-81
2022/07/31 10:07:25;;;;;;;;;;;;;;;27.70;44.50;101159.41;4940525;28;122352;-82
2022/07/31 10:09:54;;;;;;;;;;;;;;;27.77;44.44;101159.44;4936052;28;122487;-82
2022/07/31 10:12:40;;;;;;;;;;;;;;;27.88;44.64;101157.56;4944264;28;122387;-81
2022/07/31 10:15:08;;;;;;;;;;;;;;;27.97;44.62;101154.19;4937875;28;122375;-82
2022/07/31 10:17:36;;;;;;;;;;;;;;;28.09;44.95;101153.25;4921591;28;125406;-81
2022/07/31 10:20:32;;;;;;;;;;;;;;;28.35;45.13;101145.78;4918126;28;122971;-81
2022/07/31 10:23:22;;;;;;;;;;;;;;;28.49;43.93;101144.25;4939290;28;123441;-81
2022/07/31 10:25:51;;;;;;;;;;;;;;;28.50;43.76;101145.78;4934116;28;122972;-82
2022/07/31 10:28:16;;;;;;;;;;;;;;;28.46;43.68;101151.03;4904625;28;122817;-81
2022/07/31 10:30:44;;;;;;;;;;;;;;;28.43;43.86;101143.72;4906460;28;125797;-81
2022/07/31 10:33:10;;;;;;;;;;;;;;;28.40;43.65;101147.66;4938392;28;123566;-80
2022/07/31 10:36:17;;;;;;;;;;;;;;;28.37;43.87;101143.13;4927677;28;124055;-81
2022/07/31 10:39:08;;;;;;;;;;;;;;;28.34;43.68;101138.63;4946991;28;123053;-81
2022/07/31 10:42:05;;;;;;;;;;;;;;;28.38;44.43;101139.75;4930369;28;122594;-82
2022/07/31 10:44:38;;;;;;;;;;;;;;;28.43;43.77;101129.59;4930373;28;123050;-82
2022/07/31 10:47:22;;;;;;;;;;;;;;;28.43;43.62;101129.59;4935326;28;122351;-81
2022/07/31 10:50:26;;;;;;;;;;;;;;;28.43;43.46;101119.06;4930138;28;122559;-81
2022/07/31 10:53:12;;;;;;;;;;;;;;;28.45;43.72;101115.69;4939383;28;126064;-80
2022/07/31 10:56:00;;;;;;;;;;;;;;;28.44;43.47;101102.91;4940972;28;123017;-80
2022/07/31 10:58:50;;;;;;;;;;;;;;;28.45;43.87;101095.94;4937990;28;123429;-81
2022/07/31 11:01:48;;;;;;;;;;;;;;;28.50;43.64;101083.69;4923875;28;125713;-81
2022/07/31 11:04:35;;;;;;;;;;;;;;;28.55;43.44;101091.19;4940602;28;125046;-81
2022/07/31 11:07:29;;;;;;;;;;;;;;;28.52;43.24;101091.59;4944628;28;124943;-81
2022/07/31 11:10:07;;;;;;;;;;;;;;;28.51;42.94;101079.53;4945255;28;123169;-81
2022/07/31 11:13:03;;;;;;;;;;;;;;;28.46;43.04;101080.50;4946939;28;122239;-81
2022/07/31 11:15:44;;;;;;;;;;;;;;;28.46;43.67;101068.47;4941530;28;125463;-81
2022/07/31 11:18:30;;;;;;;;;;;;;;;28.53;43.78;101073.34;4895845;28;122677;-82
2022/07/31 11:21:03;;;;;;;;;;;;;;;28.53;42.61;101076.16;4937447;28;124245;-81
2022/07/31 11:23:29;;;;;;;;;;;;;;;28.44;42.74;101069.03;4941805;28;122789;-80
2022/07/31 11:25:58;;;;;;;;;;;;;;;28.40;42.65;101074.31;4940358;28;122571;-81
2022/07/31 11:28:23;;;;;;;;;;;;;;;28.36;42.92;101074.69;4944982;28;122399;-81
2022/07/31 11:31:01;;;;;;;;;;;;;;;28.43;43.17;101067.53;4941897;28;123659;-81
2022/07/31 11:33:55;;;;;;;;;;;;;;;28.47;43.11;101055.88;4876899;28;123150;-81
2022/07/31 11:36:23;;;;;;;;;;;;;;;28.51;43.49;101061.88;4945924;28;124160;-81
2022/07/31 11:38:49;;;;;;;;;;;;;;;28.56;43.81;101061.66;4927858;28;122858;-81
2022/07/31 11:41:16;;;;;;;;;;;;;;;28.58;43.03;101064.66;4942545;28;122245;-82
2022/07/31 11:43:45;;;;;;;;;;;;;;;28.61;43.64;101057.88;4941670;28;122630;-82
2022/07/31 11:46:11;;;;;;;;;;;;;;;28.64;43.59;101058.84;4936348;28;123166;-81
2022/07/31 11:48:37;;;;;;;;;;;;;;;28.63;43.74;101063.72;4901883;28;124923;-81
2022/07/31 11:51:03;;;;;;;;;;;;;;;28.61;43.55;101063.53;4942799;28;125675;-81
2022/07/31 11:53:29;;;;;;;;;;;;;;;28.57;43.88;101062.41;4937005;28;122361;-81
2022/07/31 11:55:59;;;;;;;;;;;;;;;28.50;44.01;101061.13;4938781;28;124599;-81
2022/07/31 11:58:28;;;;;;;;;;;;;;;28.39;44.18;101061.50;4941975;28;122892;-81
2022/07/31 12:00:55;;;;;;;;;;;;;;;28.25;43.91;101060.22;4940833;28;122310;-81
2022/07/31 12:03:22;;;;;;;;;;;;;;;28.00;43.61;101062.84;4941386;28;122639;-80
2022/07/31 12:05:49;;;;;;;;;;;;;;;27.75;43.86;101062.66;4936551;28;122409;-81
2022/07/31 12:08:15;;;;;;;;;;;;;;;27.57;44.30;101067.31;4941013;28;122883;-81
2022/07/31 12:10:41;;;;;;;;;;;;;;;27.42;44.39;101065.19;4940359;28;125701;-81
2022/07/31 12:13:11;;;;;;;;;;;;;;;27.28;44.54;101054.66;4938796;28;122774;-81
2022/07/31 12:15:39;;;;;;;;;;;;;;;27.13;45.05;101053.28;4939263;28;124437;-81
2022/07/31 12:18:13;;;;;;;;;;;;;;;27.02;45.22;101053.66;4906473;28;124842;-81
2022/07/31 12:20:39;;;;;;;;;;;;;;;26.91;44.92;101049.06;4944730;28;122464;-81
2022/07/31 12:23:04;;;;;;;;;;;;;;;26.82;45.29;101043.97;4922045;28;125470;-81
2022/07/31 12:25:44;;;;;;;;;;;;;;;26.76;45.83;101051.81;4937944;28;122343;-81
2022/07/31 12:28:11;;;;;;;;;;;;;;;26.70;46.07;101047.63;4957176;28;125061;-81
2022/07/31 12:30:37;;;;;;;;;;;;;;;26.64;46.04;101045.00;4938814;28;122927;-81
2022/07/31 12:33:06;;;;;;;;;;;;;;;26.60;46.41;101045.34;4940478;28;123660;-81
2022/07/31 12:35:39;;;;;;;;;;;;;;;26.57;46.57;101037.28;4937901;28;122848;-81
2022/07/31 12:38:04;;;;;;;;;;;;;;;26.51;46.02;101039.50;4941722;28;122333;-80
2022/07/31 12:40:30;;;;;;;;;;;;;;;26.49;46.16;101040.03;4939741;28;122480;-80
2022/07/31 12:42:58;;;;;;;;;;;;;;;26.47;46.19;101039.06;4913110;28;124167;-81
2022/07/31 12:45:37;;;;;;;;;;;;;;;26.48;46.76;101034.97;4940448;28;124969;-81
2022/07/31 12:48:03;;;;;;;;;;;;;;;26.50;47.04;101026.72;4956108;28;124189;-81
2022/07/31 12:50:29;;;;;;;;;;;;;;;26.52;47.41;101026.94;4941911;28;122883;-82
2022/07/31 12:52:57;;;;;;;;;;;;;;;26.54;47.38;101025.06;4939919;28;122996;-81
2022/07/31 12:55:23;;;;;;;;;;;;;;;26.57;47.30;101017.59;4941401;28;124640;-81